sensor_id;sensor_type;location;lat;lon;timestamp;P1;durP1;ratioP1;P2;durP2;ratioP2
68212;SDS011;55035;47.792;8.724;2023-12-20T00:00:28;16.15;;;14.85;;
68212;SDS011;55035;47.792;8.724;2023-12-20T00:02:54;16.35;;;15.05;;
68212;SDS011;55035;47.792;8.724;2023-12-20T00:05:21;19.77;;;18.17;;
68212;SDS011;55035;47.792;8.724;2023-12-20T00:07:48;18.80;;;17.30;;
68212;SDS011;55035;47.792;8.724;2023-12-20T00:10:16;18.67;;;17.08;;
68212;SDS011;55035;47.792;8.724;2023-12-20T00:12:42;17.87;;;16.37;;
68212;SDS011;55035;47.792;8.724;2023-12-20T00:15:09;22.00;;;20.10;;
68212;SDS011;55035;47.792;8.724;2023-12-20T00:17:35;23.60;;;21.50;;
68212;SDS011;55035;47.792;8.724;2023-12-20T00:20:02;23.17;;;21.08;;
68212;SDS011;55035;47.792;8.724;2023-12-20T00:22:30;21.73;;;19.80;;
68212;SDS011;55035;47.792;8.724;2023-12-20T00:24:57;22.08;;;20.17;;
68212;SDS011;55035;47.792;8.724;2023-12-20T00:27:25;21.63;;;19.83;;
68212;SDS011;55035;47.792;8.724;2023-12-20T00:29:51;20.00;;;18.30;;
68212;SDS011;55035;47.792;8.724;2023-12-20T00:32:18;20.53;;;18.83;;
68212;SDS011;55035;47.792;8.724;2023-12-20T00:34:44;21.85;;;20.15;;
68212;SDS011;55035;47.792;8.724;2023-12-20T00:37:11;19.48;;;17.90;;
68212;SDS011;55035;47.792;8.724;2023-12-20T00:39:38;19.08;;;17.58;;
68212;SDS011;55035;47.792;8.724;2023-12-20T00:42:04;18.98;;;17.48;;
68212;SDS011;55035;47.792;8.724;2023-12-20T00:44:32;18.42;;;16.92;;
68212;SDS011;55035;47.792;8.724;2023-12-20T00:46:59;20.55;;;18.95;;
68212;SDS011;55035;47.792;8.724;2023-12-20T00:49:26;19.33;;;17.73;;
68212;SDS011;55035;47.792;8.724;2023-12-20T00:51:53;20.00;;;18.40;;
68212;SDS011;55035;47.792;8.724;2023-12-20T00:54:19;20.00;;;18.40;;
68212;SDS011;55035;47.792;8.724;2023-12-20T00:56:46;19.97;;;18.37;;
68212;SDS011;55035;47.792;8.724;2023-12-20T00:59:12;17.48;;;15.98;;
68212;SDS011;55035;47.792;8.724;2023-12-20T01:01:41;18.58;;;16.98;;
68212;SDS011;55035;47.792;8.724;2023-12-20T01:04:08;18.63;;;17.13;;
68212;SDS011;55035;47.792;8.724;2023-12-20T01:06:35;18.80;;;17.30;;
68212;SDS011;55035;47.792;8.724;2023-12-20T01:09:01;19.40;;;17.90;;
68212;SDS011;55035;47.792;8.724;2023-12-20T01:11:28;17.83;;;16.33;;
68212;SDS011;55035;47.792;8.724;2023-12-20T01:13:55;18.85;;;17.35;;
68212;SDS011;55035;47.792;8.724;2023-12-20T01:16:21;18.00;;;16.50;;
68212;SDS011;55035;47.792;8.724;2023-12-20T01:18:49;18.52;;;17.02;;
68212;SDS011;55035;47.792;8.724;2023-12-20T01:21:16;19.17;;;17.57;;
68212;SDS011;55035;47.792;8.724;2023-12-20T01:23:43;17.23;;;15.82;;
68212;SDS011;55035;47.792;8.724;2023-12-20T01:26:09;18.27;;;16.77;;
68212;SDS011;55035;47.792;8.724;2023-12-20T01:28:36;19.03;;;17.53;;
68212;SDS011;55035;47.792;8.724;2023-12-20T01:31:02;18.00;;;16.40;;
68212;SDS011;55035;47.792;8.724;2023-12-20T01:33:29;16.42;;;15.13;;
68212;SDS011;55035;47.792;8.724;2023-12-20T01:35:57;16.45;;;15.15;;
68212;SDS011;55035;47.792;8.724;2023-12-20T01:38:24;16.67;;;15.32;;
68212;SDS011;55035;47.792;8.724;2023-12-20T01:40:50;15.48;;;14.18;;
68212;SDS011;55035;47.792;8.724;2023-12-20T01:43:17;14.70;;;13.50;;
68212;SDS011;55035;47.792;8.724;2023-12-20T01:45:44;14.07;;;12.88;;
68212;SDS011;55035;47.792;8.724;2023-12-20T01:48:10;14.73;;;13.53;;
68212;SDS011;55035;47.792;8.724;2023-12-20T01:50:37;14.30;;;13.10;;
68212;SDS011;55035;47.792;8.724;2023-12-20T01:53:05;13.60;;;12.40;;
68212;SDS011;55035;47.792;8.724;2023-12-20T01:55:34;14.63;;;13.43;;
68212;SDS011;55035;47.792;8.724;2023-12-20T01:58:01;15.13;;;13.90;;
68212;SDS011;55035;47.792;8.724;2023-12-20T02:00:28;14.55;;;13.35;;
68212;SDS011;55035;47.792;8.724;2023-12-20T02:02:55;13.65;;;12.48;;
68212;SDS011;55035;47.792;8.724;2023-12-20T02:05:27;13.20;;;12.10;;
68212;SDS011;55035;47.792;8.724;2023-12-20T02:07:55;15.00;;;13.80;;
68212;SDS011;55035;47.792;8.724;2023-12-20T02:10:23;13.63;;;12.52;;
68212;SDS011;55035;47.792;8.724;2023-12-20T02:12:50;14.38;;;13.25;;
68212;SDS011;55035;47.792;8.724;2023-12-20T02:15:16;13.43;;;12.33;;
68212;SDS011;55035;47.792;8.724;2023-12-20T02:17:43;15.07;;;13.88;;
68212;SDS011;55035;47.792;8.724;2023-12-20T02:20:10;13.87;;;12.77;;
68212;SDS011;55035;47.792;8.724;2023-12-20T02:22:38;15.48;;;14.27;;
68212;SDS011;55035;47.792;8.724;2023-12-20T02:25:05;12.73;;;11.73;;
68212;SDS011;55035;47.792;8.724;2023-12-20T02:27:32;13.67;;;12.60;;
68212;SDS011;55035;47.792;8.724;2023-12-20T02:29:59;14.30;;;13.15;;
68212;SDS011;55035;47.792;8.724;2023-12-20T02:32:25;15.25;;;14.05;;
68212;SDS011;55035;47.792;8.724;2023-12-20T02:34:52;13.32;;;12.23;;
68212;SDS011;55035;47.792;8.724;2023-12-20T02:37:19;14.10;;;13.00;;
68212;SDS011;55035;47.792;8.724;2023-12-20T02:39:47;14.85;;;13.75;;
68212;SDS011;55035;47.792;8.724;2023-12-20T02:42:14;13.43;;;12.43;;
68212;SDS011;55035;47.792;8.724;2023-12-20T02:44:40;15.43;;;14.23;;
68212;SDS011;55035;47.792;8.724;2023-12-20T02:47:07;16.00;;;14.70;;
68212;SDS011;55035;47.792;8.724;2023-12-20T02:49:34;17.52;;;16.13;;
68212;SDS011;55035;47.792;8.724;2023-12-20T02:52:00;17.00;;;15.60;;
68212;SDS011;55035;47.792;8.724;2023-12-20T02:54:27;18.47;;;16.97;;
68212;SDS011;55035;47.792;8.724;2023-12-20T02:56:55;19.67;;;18.08;;
68212;SDS011;55035;47.792;8.724;2023-12-20T02:59:22;20.88;;;19.08;;
68212;SDS011;55035;47.792;8.724;2023-12-20T03:01:48;19.35;;;17.65;;
68212;SDS011;55035;47.792;8.724;2023-12-20T03:04:15;19.40;;;17.70;;
68212;SDS011;55035;47.792;8.724;2023-12-20T03:06:42;21.92;;;19.95;;
68212;SDS011;55035;47.792;8.724;2023-12-20T03:09:08;24.10;;;21.80;;
68212;SDS011;55035;47.792;8.724;2023-12-20T03:11:35;24.45;;;22.10;;
68212;SDS011;55035;47.792;8.724;2023-12-20T03:14:03;23.43;;;21.13;;
68212;SDS011;55035;47.792;8.724;2023-12-20T03:16:29;26.15;;;23.75;;
68212;SDS011;55035;47.792;8.724;2023-12-20T03:18:58;25.83;;;23.33;;
68212;SDS011;55035;47.792;8.724;2023-12-20T03:21:24;26.97;;;24.47;;
68212;SDS011;55035;47.792;8.724;2023-12-20T03:23:51;26.67;;;24.13;;
68212;SDS011;55035;47.792;8.724;2023-12-20T03:26:19;23.88;;;21.65;;
68212;SDS011;55035;47.792;8.724;2023-12-20T03:28:45;25.48;;;23.17;;
68212;SDS011;55035;47.792;8.724;2023-12-20T03:31:15;24.35;;;22.02;;
68212;SDS011;55035;47.792;8.724;2023-12-20T03:33:41;25.80;;;23.30;;
68212;SDS011;55035;47.792;8.724;2023-12-20T03:36:08;26.67;;;24.13;;
68212;SDS011;55035;47.792;8.724;2023-12-20T03:38:34;26.38;;;23.77;;
68212;SDS011;55035;47.792;8.724;2023-12-20T03:41:01;25.60;;;23.13;;
68212;SDS011;55035;47.792;8.724;2023-12-20T03:43:27;23.88;;;21.65;;
68212;SDS011;55035;47.792;8.724;2023-12-20T03:45:54;25.48;;;22.98;;
68212;SDS011;55035;47.792;8.724;2023-12-20T03:48:22;27.40;;;24.73;;
68212;SDS011;55035;47.792;8.724;2023-12-20T03:50:49;25.83;;;23.27;;
68212;SDS011;55035;47.792;8.724;2023-12-20T03:53:15;26.80;;;23.95;;
68212;SDS011;55035;47.792;8.724;2023-12-20T03:55:42;28.35;;;25.45;;
68212;SDS011;55035;47.792;8.724;2023-12-20T03:58:09;28.80;;;25.80;;
68212;SDS011;55035;47.792;8.724;2023-12-20T04:00:36;28.45;;;25.50;;
68212;SDS011;55035;47.792;8.724;2023-12-20T04:03:03;28.67;;;25.77;;
68212;SDS011;55035;47.792;8.724;2023-12-20T04:05:31;26.98;;;24.17;;
68212;SDS011;55035;47.792;8.724;2023-12-20T04:07:59;27.52;;;24.65;;
68212;SDS011;55035;47.792;8.724;2023-12-20T04:10:26;30.13;;;26.90;;
68212;SDS011;55035;47.792;8.724;2023-12-20T04:12:53;28.30;;;25.40;;
68212;SDS011;55035;47.792;8.724;2023-12-20T04:15:20;29.33;;;26.42;;
68212;SDS011;55035;47.792;8.724;2023-12-20T04:17:46;29.15;;;26.15;;
68212;SDS011;55035;47.792;8.724;2023-12-20T04:20:13;31.90;;;28.53;;
68212;SDS011;55035;47.792;8.724;2023-12-20T04:22:41;31.35;;;27.85;;
68212;SDS011;55035;47.792;8.724;2023-12-20T04:25:08;32.22;;;28.45;;
68212;SDS011;55035;47.792;8.724;2023-12-20T04:27:36;33.03;;;29.35;;
68212;SDS011;55035;47.792;8.724;2023-12-20T04:30:03;31.83;;;28.23;;
68212;SDS011;55035;47.792;8.724;2023-12-20T04:32:31;29.93;;;26.83;;
68212;SDS011;55035;47.792;8.724;2023-12-20T04:34:58;30.88;;;27.55;;
68212;SDS011;55035;47.792;8.724;2023-12-20T04:37:24;28.25;;;25.33;;
68212;SDS011;55035;47.792;8.724;2023-12-20T04:39:52;29.15;;;26.10;;
68212;SDS011;55035;47.792;8.724;2023-12-20T04:42:20;30.03;;;26.93;;
68212;SDS011;55035;47.792;8.724;2023-12-20T04:44:46;29.02;;;26.02;;
68212;SDS011;55035;47.792;8.724;2023-12-20T04:47:13;28.02;;;25.20;;
68212;SDS011;55035;47.792;8.724;2023-12-20T04:49:39;27.10;;;24.30;;
68212;SDS011;55035;47.792;8.724;2023-12-20T04:52:06;27.50;;;24.70;;
68212;SDS011;55035;47.792;8.724;2023-12-20T04:54:33;28.77;;;25.95;;
68212;SDS011;55035;47.792;8.724;2023-12-20T04:57:01;26.88;;;24.27;;
68212;SDS011;55035;47.792;8.724;2023-12-20T04:59:27;25.08;;;22.48;;
68212;SDS011;55035;47.792;8.724;2023-12-20T05:01:54;26.90;;;24.30;;
68212;SDS011;55035;47.792;8.724;2023-12-20T05:04:20;27.75;;;24.95;;
68212;SDS011;55035;47.792;8.724;2023-12-20T05:06:47;26.70;;;23.90;;
68212;SDS011;55035;47.792;8.724;2023-12-20T05:09:15;26.58;;;23.83;;
68212;SDS011;55035;47.792;8.724;2023-12-20T05:11:41;25.97;;;23.47;;
68212;SDS011;55035;47.792;8.724;2023-12-20T05:14:09;28.88;;;26.15;;
68212;SDS011;55035;47.792;8.724;2023-12-20T05:16:36;27.80;;;25.17;;
68212;SDS011;55035;47.792;8.724;2023-12-20T05:19:02;26.88;;;24.17;;
68212;SDS011;55035;47.792;8.724;2023-12-20T05:21:31;27.97;;;25.37;;
68212;SDS011;55035;47.792;8.724;2023-12-20T05:23:58;26.55;;;24.00;;
68212;SDS011;55035;47.792;8.724;2023-12-20T05:26:25;29.50;;;26.70;;
68212;SDS011;55035;47.792;8.724;2023-12-20T05:28:53;26.60;;;24.00;;
68212;SDS011;55035;47.792;8.724;2023-12-20T05:31:20;26.23;;;23.73;;
68212;SDS011;55035;47.792;8.724;2023-12-20T05:33:47;26.07;;;23.57;;
68212;SDS011;55035;47.792;8.724;2023-12-20T05:36:14;25.75;;;23.25;;
68212;SDS011;55035;47.792;8.724;2023-12-20T05:38:40;25.50;;;23.10;;
68212;SDS011;55035;47.792;8.724;2023-12-20T05:41:07;26.85;;;24.35;;
68212;SDS011;55035;47.792;8.724;2023-12-20T05:43:33;27.45;;;24.75;;
68212;SDS011;55035;47.792;8.724;2023-12-20T05:46:00;24.85;;;22.45;;
68212;SDS011;55035;47.792;8.724;2023-12-20T05:48:28;27.98;;;25.48;;
68212;SDS011;55035;47.792;8.724;2023-12-20T05:50:55;26.35;;;23.85;;
68212;SDS011;55035;47.792;8.724;2023-12-20T05:53:21;27.92;;;25.33;;
68212;SDS011;55035;47.792;8.724;2023-12-20T05:55:48;25.50;;;23.10;;
68212;SDS011;55035;47.792;8.724;2023-12-20T05:58:14;24.27;;;22.08;;
68212;SDS011;55035;47.792;8.724;2023-12-20T06:00:41;27.55;;;24.95;;
68212;SDS011;55035;47.792;8.724;2023-12-20T06:03:07;26.88;;;24.17;;
68212;SDS011;55035;47.792;8.724;2023-12-20T06:05:35;28.90;;;26.00;;
68212;SDS011;55035;47.792;8.724;2023-12-20T06:08:02;29.98;;;26.92;;
68212;SDS011;55035;47.792;8.724;2023-12-20T06:10:29;29.08;;;26.08;;
68212;SDS011;55035;47.792;8.724;2023-12-20T06:12:55;27.52;;;24.73;;
68212;SDS011;55035;47.792;8.724;2023-12-20T06:15:24;27.40;;;24.70;;
68212;SDS011;55035;47.792;8.724;2023-12-20T06:17:50;27.40;;;24.58;;
68212;SDS011;55035;47.792;8.724;2023-12-20T06:20:18;28.50;;;25.60;;
68212;SDS011;55035;47.792;8.724;2023-12-20T06:22:46;26.58;;;23.88;;
68212;SDS011;55035;47.792;8.724;2023-12-20T06:25:13;29.15;;;26.05;;
68212;SDS011;55035;47.792;8.724;2023-12-20T06:27:39;31.80;;;28.20;;
68212;SDS011;55035;47.792;8.724;2023-12-20T06:30:07;28.00;;;25.30;;
68212;SDS011;55035;47.792;8.724;2023-12-20T06:32:34;25.55;;;23.05;;
68212;SDS011;55035;47.792;8.724;2023-12-20T06:35:01;26.47;;;23.97;;
68212;SDS011;55035;47.792;8.724;2023-12-20T06:37:27;25.98;;;23.52;;
68212;SDS011;55035;47.792;8.724;2023-12-20T06:39:55;24.17;;;21.67;;
68212;SDS011;55035;47.792;8.724;2023-12-20T06:42:23;26.80;;;24.20;;
68212;SDS011;55035;47.792;8.724;2023-12-20T06:44:49;26.42;;;23.92;;
68212;SDS011;55035;47.792;8.724;2023-12-20T06:47:16;26.02;;;23.45;;
68212;SDS011;55035;47.792;8.724;2023-12-20T06:49:43;25.40;;;23.00;;
68212;SDS011;55035;47.792;8.724;2023-12-20T06:52:09;26.92;;;24.30;;
68212;SDS011;55035;47.792;8.724;2023-12-20T06:54:36;25.60;;;23.20;;
68212;SDS011;55035;47.792;8.724;2023-12-20T06:57:04;25.70;;;23.10;;
68212;SDS011;55035;47.792;8.724;2023-12-20T06:59:30;27.83;;;25.13;;
68212;SDS011;55035;47.792;8.724;2023-12-20T07:01:57;26.90;;;24.20;;
68212;SDS011;55035;47.792;8.724;2023-12-20T07:04:24;28.48;;;25.67;;
68212;SDS011;55035;47.792;8.724;2023-12-20T07:06:50;26.15;;;23.48;;
68212;SDS011;55035;47.792;8.724;2023-12-20T07:09:19;30.00;;;27.00;;
68212;SDS011;55035;47.792;8.724;2023-12-20T07:11:45;27.93;;;25.03;;
68212;SDS011;55035;47.792;8.724;2023-12-20T07:14:13;29.95;;;26.92;;
68212;SDS011;55035;47.792;8.724;2023-12-20T07:16:40;28.47;;;25.77;;
68212;SDS011;55035;47.792;8.724;2023-12-20T07:19:06;29.73;;;26.73;;
68212;SDS011;55035;47.792;8.724;2023-12-20T07:21:33;28.70;;;25.80;;
68212;SDS011;55035;47.792;8.724;2023-12-20T07:23:59;30.13;;;26.92;;
68212;SDS011;55035;47.792;8.724;2023-12-20T07:26:26;28.57;;;25.53;;
68212;SDS011;55035;47.792;8.724;2023-12-20T07:28:53;29.48;;;26.38;;
68212;SDS011;55035;47.792;8.724;2023-12-20T07:31:21;27.65;;;24.95;;
68212;SDS011;55035;47.792;8.724;2023-12-20T07:33:49;29.40;;;26.30;;
68212;SDS011;55035;47.792;8.724;2023-12-20T07:36:15;31.00;;;27.83;;
68212;SDS011;55035;47.792;8.724;2023-12-20T07:38:42;27.52;;;24.73;;
68212;SDS011;55035;47.792;8.724;2023-12-20T07:41:09;28.30;;;25.50;;
68212;SDS011;55035;47.792;8.724;2023-12-20T07:43:38;25.08;;;22.48;;
68212;SDS011;55035;47.792;8.724;2023-12-20T07:46:05;29.83;;;26.83;;
68212;SDS011;55035;47.792;8.724;2023-12-20T07:48:33;29.20;;;26.40;;
68212;SDS011;55035;47.792;8.724;2023-12-20T07:51:00;27.80;;;25.00;;
68212;SDS011;55035;47.792;8.724;2023-12-20T07:53:27;28.80;;;25.77;;
68212;SDS011;55035;47.792;8.724;2023-12-20T07:55:53;31.75;;;28.65;;
68212;SDS011;55035;47.792;8.724;2023-12-20T07:58:20;30.30;;;27.10;;
68212;SDS011;55035;47.792;8.724;2023-12-20T08:00:47;32.78;;;28.55;;
68212;SDS011;55035;47.792;8.724;2023-12-20T08:03:14;29.63;;;26.43;;
68212;SDS011;55035;47.792;8.724;2023-12-20T08:05:42;31.65;;;28.30;;
68212;SDS011;55035;47.792;8.724;2023-12-20T08:08:08;31.00;;;27.60;;
68212;SDS011;55035;47.792;8.724;2023-12-20T08:10:35;31.10;;;27.73;;
68212;SDS011;55035;47.792;8.724;2023-12-20T08:13:01;31.15;;;27.83;;
68212;SDS011;55035;47.792;8.724;2023-12-20T08:15:28;29.63;;;26.45;;
68212;SDS011;55035;47.792;8.724;2023-12-20T08:17:55;28.77;;;25.83;;
68212;SDS011;55035;47.792;8.724;2023-12-20T08:20:21;26.90;;;24.13;;
68212;SDS011;55035;47.792;8.724;2023-12-20T08:22:49;25.92;;;23.35;;
68212;SDS011;55035;47.792;8.724;2023-12-20T08:25:16;25.90;;;23.40;;
68212;SDS011;55035;47.792;8.724;2023-12-20T08:27:42;24.58;;;22.08;;
68212;SDS011;55035;47.792;8.724;2023-12-20T08:30:09;26.13;;;23.52;;
68212;SDS011;55035;47.792;8.724;2023-12-20T08:32:37;23.95;;;21.65;;
68212;SDS011;55035;47.792;8.724;2023-12-20T08:35:04;23.20;;;20.97;;
68212;SDS011;55035;47.792;8.724;2023-12-20T08:37:31;25.95;;;23.45;;
68212;SDS011;55035;47.792;8.724;2023-12-20T08:39:59;23.92;;;21.65;;
68212;SDS011;55035;47.792;8.724;2023-12-20T08:42:25;22.83;;;20.73;;
68212;SDS011;55035;47.792;8.724;2023-12-20T08:44:56;23.75;;;21.45;;
68212;SDS011;55035;47.792;8.724;2023-12-20T08:47:23;23.80;;;21.55;;
68212;SDS011;55035;47.792;8.724;2023-12-20T08:49:49;23.17;;;20.92;;
68212;SDS011;55035;47.792;8.724;2023-12-20T08:52:16;19.57;;;17.77;;
68212;SDS011;55035;47.792;8.724;2023-12-20T08:54:43;20.73;;;18.83;;
68212;SDS011;55035;47.792;8.724;2023-12-20T08:57:11;19.60;;;17.80;;
68212;SDS011;55035;47.792;8.724;2023-12-20T08:59:37;20.08;;;18.30;;
68212;SDS011;55035;47.792;8.724;2023-12-20T09:02:04;20.15;;;18.35;;
68212;SDS011;55035;47.792;8.724;2023-12-20T09:04:31;19.08;;;17.42;;
68212;SDS011;55035;47.792;8.724;2023-12-20T09:06:59;20.20;;;18.50;;
68212;SDS011;55035;47.792;8.724;2023-12-20T09:09:25;19.20;;;17.50;;
68212;SDS011;55035;47.792;8.724;2023-12-20T09:11:52;18.60;;;17.00;;
68212;SDS011;55035;47.792;8.724;2023-12-20T09:14:20;19.10;;;17.50;;
68212;SDS011;55035;47.792;8.724;2023-12-20T09:16:46;20.73;;;19.02;;
68212;SDS011;55035;47.792;8.724;2023-12-20T09:19:13;19.08;;;17.48;;
68212;SDS011;55035;47.792;8.724;2023-12-20T09:21:40;19.38;;;17.67;;
68212;SDS011;55035;47.792;8.724;2023-12-20T09:24:06;20.08;;;18.38;;
68212;SDS011;55035;47.792;8.724;2023-12-20T09:26:34;21.02;;;19.23;;
68212;SDS011;55035;47.792;8.724;2023-12-20T09:29:00;20.52;;;18.73;;
68212;SDS011;55035;47.792;8.724;2023-12-20T09:31:28;19.38;;;17.67;;
68212;SDS011;55035;47.792;8.724;2023-12-20T09:33:55;21.45;;;19.65;;
68212;SDS011;55035;47.792;8.724;2023-12-20T09:36:22;19.40;;;17.70;;
68212;SDS011;55035;47.792;8.724;2023-12-20T09:38:49;18.55;;;16.90;;
68212;SDS011;55035;47.792;8.724;2023-12-20T09:41:16;19.45;;;17.75;;
68212;SDS011;55035;47.792;8.724;2023-12-20T09:43:43;19.23;;;17.43;;
68212;SDS011;55035;47.792;8.724;2023-12-20T09:46:09;19.42;;;17.80;;
68212;SDS011;55035;47.792;8.724;2023-12-20T09:48:39;19.13;;;17.52;;
68212;SDS011;55035;47.792;8.724;2023-12-20T09:51:07;20.05;;;18.38;;
68212;SDS011;55035;47.792;8.724;2023-12-20T09:53:34;17.23;;;15.73;;
68212;SDS011;55035;47.792;8.724;2023-12-20T09:56:02;15.98;;;14.57;;
68212;SDS011;55035;47.792;8.724;2023-12-20T09:58:29;17.77;;;16.27;;
68212;SDS011;55035;47.792;8.724;2023-12-20T10:00:55;16.75;;;15.25;;
68212;SDS011;55035;47.792;8.724;2023-12-20T10:03:23;17.27;;;15.85;;
68212;SDS011;55035;47.792;8.724;2023-12-20T10:05:51;16.38;;;14.98;;
68212;SDS011;55035;47.792;8.724;2023-12-20T10:08:20;17.08;;;15.68;;
68212;SDS011;55035;47.792;8.724;2023-12-20T10:10:47;17.48;;;15.98;;
68212;SDS011;55035;47.792;8.724;2023-12-20T10:13:14;17.05;;;15.65;;
68212;SDS011;55035;47.792;8.724;2023-12-20T10:15:41;15.93;;;14.55;;
68212;SDS011;55035;47.792;8.724;2023-12-20T10:18:08;16.65;;;15.35;;
68212;SDS011;55035;47.792;8.724;2023-12-20T10:20:34;15.43;;;14.17;;
68212;SDS011;55035;47.792;8.724;2023-12-20T10:23:02;14.90;;;13.68;;
68212;SDS011;55035;47.792;8.724;2023-12-20T10:25:29;14.40;;;13.20;;
68212;SDS011;55035;47.792;8.724;2023-12-20T10:30:48;14.10;;;12.90;;
68212;SDS011;55035;47.792;8.724;2023-12-20T10:33:16;13.83;;;12.70;;
68212;SDS011;55035;47.792;8.724;2023-12-20T10:35:49;13.10;;;12.00;;
68212;SDS011;55035;47.792;8.724;2023-12-20T10:38:18;14.52;;;13.32;;
68212;SDS011;55035;47.792;8.724;2023-12-20T10:40:44;13.38;;;12.27;;
68212;SDS011;55035;47.792;8.724;2023-12-20T10:43:11;14.10;;;12.90;;
68212;SDS011;55035;47.792;8.724;2023-12-20T10:45:38;13.40;;;12.30;;
68212;SDS011;55035;47.792;8.724;2023-12-20T10:48:05;14.30;;;13.10;;
68212;SDS011;55035;47.792;8.724;2023-12-20T10:50:33;13.70;;;12.60;;
68212;SDS011;55035;47.792;8.724;2023-12-20T10:53:03;13.65;;;12.55;;
68212;SDS011;55035;47.792;8.724;2023-12-20T10:55:31;13.48;;;12.38;;
68212;SDS011;55035;47.792;8.724;2023-12-20T10:58:00;8.90;;;8.10;;
68212;SDS011;55035;47.792;8.724;2023-12-20T11:00:28;4.88;;;1.80;;
68212;SDS011;55035;47.792;8.724;2023-12-20T11:02:56;4.60;;;1.10;;
68212;SDS011;55035;47.792;8.724;2023-12-20T11:05:28;4.70;;;1.10;;
68212;SDS011;55035;47.792;8.724;2023-12-20T11:07:58;4.10;;;0.70;;
68212;SDS011;55035;47.792;8.724;2023-12-20T11:10:29;3.90;;;0.80;;
68212;SDS011;55035;47.792;8.724;2023-12-20T11:12:58;3.90;;;0.90;;
68212;SDS011;55035;47.792;8.724;2023-12-20T11:15:28;4.20;;;1.05;;
68212;SDS011;55035;47.792;8.724;2023-12-20T11:17:55;4.85;;;1.08;;
68212;SDS011;55035;47.792;8.724;2023-12-20T11:20:22;4.53;;;0.80;;
68212;SDS011;55035;47.792;8.724;2023-12-20T11:22:53;4.45;;;1.00;;
68212;SDS011;55035;47.792;8.724;2023-12-20T11:25:19;3.63;;;0.80;;
68212;SDS011;55035;47.792;8.724;2023-12-20T11:28:06;3.17;;;0.70;;
68212;SDS011;55035;47.792;8.724;2023-12-20T11:30:41;4.00;;;0.70;;
68212;SDS011;55035;47.792;8.724;2023-12-20T11:33:08;3.33;;;0.60;;
68212;SDS011;55035;47.792;8.724;2023-12-20T11:35:35;3.70;;;0.60;;
68212;SDS011;55035;47.792;8.724;2023-12-20T11:38:03;4.03;;;0.73;;
68212;SDS011;55035;47.792;8.724;2023-12-20T11:40:30;4.22;;;0.77;;
68212;SDS011;55035;47.792;8.724;2023-12-20T11:43:00;5.60;;;3.92;;
68212;SDS011;55035;47.792;8.724;2023-12-20T11:45:27;10.70;;;9.80;;
68212;SDS011;55035;47.792;8.724;2023-12-20T11:47:56;11.13;;;10.23;;
68212;SDS011;55035;47.792;8.724;2023-12-20T11:50:24;9.30;;;8.40;;
68212;SDS011;55035;47.792;8.724;2023-12-20T11:52:55;9.30;;;8.50;;
68212;SDS011;55035;47.792;8.724;2023-12-20T11:55:21;8.70;;;7.80;;
68212;SDS011;55035;47.792;8.724;2023-12-20T11:57:49;9.43;;;8.55;;
68212;SDS011;55035;47.792;8.724;2023-12-20T12:00:16;9.82;;;8.95;;
68212;SDS011;55035;47.792;8.724;2023-12-20T12:02:45;7.13;;;6.43;;
68212;SDS011;55035;47.792;8.724;2023-12-20T12:05:23;8.15;;;7.35;;
68212;SDS011;55035;47.792;8.724;2023-12-20T12:07:49;9.33;;;8.47;;
68212;SDS011;55035;47.792;8.724;2023-12-20T12:10:16;11.82;;;10.75;;
68212;SDS011;55035;47.792;8.724;2023-12-20T12:12:43;12.43;;;11.32;;
68212;SDS011;55035;47.792;8.724;2023-12-20T12:15:09;12.15;;;11.15;;
68212;SDS011;55035;47.792;8.724;2023-12-20T12:17:36;12.73;;;11.73;;
68212;SDS011;55035;47.792;8.724;2023-12-20T12:20:04;11.38;;;10.38;;
68212;SDS011;55035;47.792;8.724;2023-12-20T12:22:32;11.80;;;10.88;;
68212;SDS011;55035;47.792;8.724;2023-12-20T12:24:59;11.35;;;10.35;;
68212;SDS011;55035;47.792;8.724;2023-12-20T12:27:27;12.65;;;11.65;;
68212;SDS011;55035;47.792;8.724;2023-12-20T12:30:01;12.82;;;11.82;;
68212;SDS011;55035;47.792;8.724;2023-12-20T12:32:30;12.65;;;11.55;;
68212;SDS011;55035;47.792;8.724;2023-12-20T12:34:57;12.95;;;11.88;;
68212;SDS011;55035;47.792;8.724;2023-12-20T12:37:24;12.43;;;11.43;;
68212;SDS011;55035;47.792;8.724;2023-12-20T12:39:54;12.10;;;11.10;;
68212;SDS011;55035;47.792;8.724;2023-12-20T12:42:21;12.15;;;11.15;;
68212;SDS011;55035;47.792;8.724;2023-12-20T12:44:54;13.47;;;12.27;;
68212;SDS011;55035;47.792;8.724;2023-12-20T12:47:21;5.77;;;3.83;;
68212;SDS011;55035;47.792;8.724;2023-12-20T12:49:49;4.40;;;0.90;;
68212;SDS011;55035;47.792;8.724;2023-12-20T12:52:19;4.80;;;1.10;;
68212;SDS011;55035;47.792;8.724;2023-12-20T12:54:46;4.80;;;1.08;;
68212;SDS011;55035;47.792;8.724;2023-12-20T12:57:14;4.47;;;1.00;;
68212;SDS011;55035;47.792;8.724;2023-12-20T12:59:42;4.70;;;1.10;;
68212;SDS011;55035;47.792;8.724;2023-12-20T13:02:11;4.50;;;1.00;;
68212;SDS011;55035;47.792;8.724;2023-12-20T13:04:37;4.88;;;1.10;;
68212;SDS011;55035;47.792;8.724;2023-12-20T13:07:04;4.85;;;1.17;;
68212;SDS011;55035;47.792;8.724;2023-12-20T13:09:31;4.55;;;1.13;;
68212;SDS011;55035;47.792;8.724;2023-12-20T13:11:57;4.32;;;1.10;;
68212;SDS011;55035;47.792;8.724;2023-12-20T13:14:26;4.63;;;1.40;;
68212;SDS011;55035;47.792;8.724;2023-12-20T13:16:53;5.20;;;1.23;;
68212;SDS011;55035;47.792;8.724;2023-12-20T13:19:21;4.78;;;1.20;;
68212;SDS011;55035;47.792;8.724;2023-12-20T13:21:47;5.40;;;1.10;;
68212;SDS011;55035;47.792;8.724;2023-12-20T13:24:14;4.50;;;1.10;;
68212;SDS011;55035;47.792;8.724;2023-12-20T13:26:41;5.35;;;1.33;;
68212;SDS011;55035;47.792;8.724;2023-12-20T13:29:07;4.95;;;1.13;;
68212;SDS011;55035;47.792;8.724;2023-12-20T13:31:35;5.30;;;1.30;;
68212;SDS011;55035;47.792;8.724;2023-12-20T13:34:03;5.13;;;1.30;;
68212;SDS011;55035;47.792;8.724;2023-12-20T13:36:29;6.50;;;1.45;;
68212;SDS011;55035;47.792;8.724;2023-12-20T13:38:56;5.80;;;1.50;;
68212;SDS011;55035;47.792;8.724;2023-12-20T13:41:23;6.40;;;1.50;;
68212;SDS011;55035;47.792;8.724;2023-12-20T13:43:50;5.38;;;1.40;;
68212;SDS011;55035;47.792;8.724;2023-12-20T13:46:18;5.18;;;1.30;;
68212;SDS011;55035;47.792;8.724;2023-12-20T13:48:46;5.05;;;1.10;;
68212;SDS011;55035;47.792;8.724;2023-12-20T13:51:12;5.20;;;1.45;;
68212;SDS011;55035;47.792;8.724;2023-12-20T13:53:39;4.68;;;1.05;;
68212;SDS011;55035;47.792;8.724;2023-12-20T13:56:06;4.65;;;1.00;;
68212;SDS011;55035;47.792;8.724;2023-12-20T13:58:33;4.60;;;1.10;;
68212;SDS011;55035;47.792;8.724;2023-12-20T14:00:59;5.05;;;1.13;;
68212;SDS011;55035;47.792;8.724;2023-12-20T14:03:26;5.07;;;1.08;;
68212;SDS011;55035;47.792;8.724;2023-12-20T14:05:54;5.03;;;1.10;;
68212;SDS011;55035;47.792;8.724;2023-12-20T14:08:21;5.27;;;1.20;;
68212;SDS011;55035;47.792;8.724;2023-12-20T14:10:48;5.43;;;1.25;;
68212;SDS011;55035;47.792;8.724;2023-12-20T14:13:15;5.63;;;1.10;;
68212;SDS011;55035;47.792;8.724;2023-12-20T14:15:42;5.57;;;1.30;;
68212;SDS011;55035;47.792;8.724;2023-12-20T14:18:08;7.82;;;1.52;;
68212;SDS011;55035;47.792;8.724;2023-12-20T14:20:35;8.30;;;7.07;;
68212;SDS011;55035;47.792;8.724;2023-12-20T14:23:05;13.77;;;12.52;;
68212;SDS011;55035;47.792;8.724;2023-12-20T14:25:32;13.55;;;12.18;;
68212;SDS011;55035;47.792;8.724;2023-12-20T14:27:58;14.93;;;13.52;;